Time;durP1;ratioP1;P1;durP2;ratioP2;P2;SDS_P1;SDS_P2;PMS_P1;PMS_P2;Temp;Humidity;BMP_temperature;BMP_pressure;BME280_temperature;BME280_humidity;BME280_pressure;Samples;Min_cycle;Max_cycle;Signal;HPM_P1;HPM_P2
2022/01/19 00:01:23;;;;;;;69.63;33.33;;;;;;;;;;5007796;28;20515;-71
2022/01/19 00:03:49;;;;;;;64.43;31.03;;;5.60;99.90;;;;;;5008671;28;20080;-71
2022/01/19 00:06:15;;;;;;;61.40;29.17;;;;;;;;;;5009095;28;20069;-71
2022/01/19 00:08:41;;;;;;;62.30;31.73;;;;;;;;;;5012584;28;20057;-71
2022/01/19 00:11:07;;;;;;;61.63;29.30;;;;;;;;;;5008701;28;20032;-71
2022/01/19 00:13:32;;;;;;;61.77;31.00;;;5.70;99.90;;;;;;5032785;22;20134;-67
2022/01/19 00:15:58;;;;;;;77.83;36.57;;;;;;;;;;5007952;28;20034;-67
2022/01/19 00:18:25;;;;;;;71.07;33.73;;;5.60;99.90;;;;;;5008403;28;20026;-67
2022/01/19 00:20:52;;;;;;;82.57;35.53;;;5.50;99.90;;;;;;4990580;28;20368;-67
2022/01/19 00:23:19;;;;;;;63.43;31.63;;;5.50;99.90;;;;;;4990732;28;20034;-67
2022/01/19 00:25:46;;;;;;;78.23;36.37;;;5.60;99.90;;;;;;5007732;28;20099;-67
2022/01/19 00:28:12;;;;;;;71.77;34.27;;;5.70;99.90;;;;;;5008658;28;20034;-67
2022/01/19 00:30:39;;;;;;;56.23;29.87;;;5.50;99.90;;;;;;5007659;28;20435;-67
2022/01/19 00:33:04;;;;;;;71.33;33.17;;;5.60;99.90;;;;;;5014586;28;20552;-68
2022/01/19 00:35:30;;;;;;;72.27;31.73;;;5.40;99.90;;;;;;5009208;28;20031;-67
2022/01/19 00:37:56;;;;;;;48.87;27.50;;;;;;;;;;5007624;28;20032;-67
2022/01/19 00:40:22;;;;;;;51.00;28.73;;;;;;;;;;5008246;28;20026;-67
2022/01/19 00:42:49;;;;;;;59.00;30.80;;;5.60;99.90;;;;;;5007931;28;20034;-67
2022/01/19 00:45:15;;;;;;;54.80;27.93;;;;;;;;;;5008063;28;20015;-67
2022/01/19 00:47:42;;;;;;;72.50;33.33;;;5.00;99.90;;;;;;5021729;28;20036;-67
2022/01/19 00:50:10;;;;;;;64.63;32.20;;;5.60;99.90;;;;;;5008192;28;20148;-67
2022/01/19 00:52:38;;;;;;;54.23;30.37;;;5.40;99.90;;;;;;5007692;28;20045;-67
2022/01/19 00:55:06;;;;;;;78.17;37.67;;;5.40;99.90;;;;;;5027124;28;20088;-67
2022/01/19 00:57:32;;;;;;;80.93;36.73;;;;;;;;;;5026247;28;20571;-67
2022/01/19 00:59:58;;;;;;;65.10;34.87;;;5.30;99.90;;;;;;5026911;28;20088;-67
2022/01/19 01:02:24;;;;;;;65.77;31.40;;;;;;;;;;5029023;28;20029;-67
2022/01/19 01:04:49;;;;;;;78.10;33.67;;;5.20;99.90;;;;;;5012174;28;20104;-67
2022/01/19 01:07:15;;;;;;;64.33;31.83;;;4.90;99.90;;;;;;5012199;28;20081;-67
2022/01/19 01:09:41;;;;;;;56.83;30.70;;;;;;;;;;5005835;28;20040;-67
2022/01/19 01:12:12;;;;;;;57.40;29.93;;;4.70;99.90;;;;;;5030176;28;20069;-67
2022/01/19 01:20:10;;;;;;;46.77;24.33;;;3.90;99.90;;;;;;5027676;28;20053;-66
2022/01/19 01:22:37;;;;;;;52.90;25.63;;;4.20;99.90;;;;;;5011427;28;20513;-66
2022/01/19 01:25:03;;;;;;;49.43;24.77;;;4.10;99.90;;;;;;5011549;28;20104;-66
2022/01/19 01:27:29;;;;;;;41.73;23.30;;;4.00;99.90;;;;;;5010753;28;20033;-67
2022/01/19 01:29:54;;;;;;;51.77;26.50;;;3.80;99.90;;;;;;5014131;28;20038;-67
2022/01/19 01:32:20;;;;;;;38.40;20.90;;;3.80;99.90;;;;;;5011912;28;20029;-67
2022/01/19 01:34:46;;;;;;;31.63;18.50;;;;;;;;;;5011113;28;20367;-67
2022/01/19 01:37:12;;;;;;;46.43;22.20;;;;;;;;;;5011805;28;20049;-67
2022/01/19 01:39:38;;;;;;;46.17;25.47;;;3.20;99.90;;;;;;5014314;28;20101;-67
2022/01/19 01:42:11;;;;;;;43.90;23.23;;;3.60;99.90;;;;;;5011129;28;20048;-67
2022/01/19 01:44:39;;;;;;;44.13;24.90;;;3.70;99.90;;;;;;4993233;28;20034;-67
2022/01/19 01:47:05;;;;;;;62.57;27.70;;;3.60;99.90;;;;;;5011212;28;20014;-67
2022/01/19 01:54:51;;;;;;;68.47;31.47;;;;;;;;;;5017736;28;20048;-67
2022/01/19 01:57:17;;;;;;;68.10;30.30;;;;;;;;;;5010976;28;20030;-67
2022/01/19 01:59:42;;;;;;;185.57;42.33;;;3.80;99.90;;;;;;4992807;28;20123;-67
2022/01/19 02:02:08;;;;;;;109.70;31.57;;;3.90;99.90;;;;;;5010986;28;20045;-67
2022/01/19 02:04:40;;;;;;;166.23;33.03;;;3.50;99.90;;;;;;5010394;28;20467;-67
2022/01/19 02:07:32;;;;;;;107.30;31.37;;;3.90;99.90;;;;;;5010915;28;20044;-67
2022/01/19 02:10:02;;;;;;;106.93;30.77;;;4.10;99.90;;;;;;5017037;28;20068;-67
2022/01/19 02:23:33;;;;;;;68.20;22.63;;;3.80;99.90;;;;;;5029332;28;20441;-67
2022/01/19 02:26:01;;;;;;;66.03;23.38;;;4.00;99.90;;;;;;5024814;28;20026;-67
2022/01/19 02:42:13;;;;;;;51.28;24.77;;;3.60;99.90;;;;;;5010833;28;20505;-67
2022/01/19 02:49:45;;;;;;;62.93;30.30;;;3.70;99.90;;;;;;5009922;28;20065;-67
2022/01/19 02:52:11;;;;;;;59.30;28.60;;;3.60;99.90;;;;;;5010376;28;20026;-69
2022/01/19 02:54:37;;;;;;;58.67;25.77;;;3.50;99.90;;;;;;5009292;28;20092;-67
2022/01/19 02:57:03;;;;;;;54.17;26.00;;;;;;;;;;5010012;28;20057;-67
2022/01/19 03:10:28;;;;;;;;;;;3.20;99.90;;;;;;5028821;28;20079;-66
2022/01/19 03:12:53;;;;;;;47.50;24.83;;;;;;;;;;5028618;28;20011;-66
2022/01/19 03:15:19;;;;;;;60.27;29.57;;;3.10;99.90;;;;;;5028875;28;20471;-67
2022/01/19 03:17:45;;;;;;;49.73;25.70;;;3.10;99.90;;;;;;5028120;28;20205;-67
2022/01/19 03:20:11;;;;;;;48.40;24.00;;;2.90;99.90;;;;;;5024230;28;20494;-67
2022/01/19 03:22:45;;;;;;;46.97;23.50;;;;;;;;;;5008485;28;20391;-66
2022/01/19 03:25:12;;;;;;;44.35;24.02;;;2.90;99.90;;;;;;5008866;28;20032;-67
2022/01/19 03:27:47;;;;;;;56.13;26.20;;;2.90;99.90;;;;;;5007574;28;20034;-67
2022/01/19 03:30:14;;;;;;;48.03;23.47;;;2.80;99.90;;;;;;5009755;28;20379;-66
2022/01/19 03:32:40;;;;;;;54.57;27.13;;;2.70;99.90;;;;;;5022365;28;20028;-66
2022/01/19 03:35:07;;;;;;;54.80;26.83;;;2.70;99.90;;;;;;5021811;28;20029;-66
2022/01/19 03:37:32;;;;;;;54.50;25.20;;;2.70;99.90;;;;;;5026025;28;20025;-66
2022/01/19 03:39:58;;;;;;;48.00;24.80;;;2.70;99.90;;;;;;5024785;28;20052;-66
2022/01/19 03:42:23;;;;;;;48.07;27.53;;;2.50;99.90;;;;;;5024949;28;20104;-67
2022/01/19 03:44:49;;;;;;;46.20;25.93;;;2.70;99.90;;;;;;5027592;28;20033;-66
2022/01/19 03:47:14;;;;;;;56.20;26.47;;;2.50;99.90;;;;;;5011832;28;20506;-67
2022/01/19 03:49:40;;;;;;;62.17;25.83;;;2.70;99.90;;;;;;5008502;28;20040;-67
2022/01/19 03:52:06;;;;;;;54.07;24.97;;;2.50;99.90;;;;;;5008681;28;20459;-67
2022/01/19 03:54:51;;;;;;;44.53;24.13;;;2.30;99.90;;;;;;5008948;28;20053;-66
2022/01/19 03:57:17;;;;;;;42.77;23.47;;;2.40;99.90;;;;;;5010187;28;20033;-67
2022/01/19 03:59:43;;;;;;;53.33;23.87;;;;;;;;;;5008209;28;20033;-67
2022/01/19 04:02:08;;;;;;;47.00;22.97;;;2.50;99.90;;;;;;5008651;28;20105;-67
2022/01/19 04:09:33;;;;;;;45.27;23.30;;;;;;;;;;5008755;28;20038;-67
2022/01/19 04:11:59;;;;;;;41.93;21.70;;;2.10;99.90;;;;;;5012783;28;20085;-67
2022/01/19 04:14:25;;;;;;;44.23;24.00;;;2.10;99.90;;;;;;5010367;28;20026;-67
2022/01/19 04:16:58;;;;;;;47.73;23.67;;;1.70;99.90;;;;;;5008356;28;20022;-67
2022/01/19 04:19:33;;;;;;;50.90;21.87;;;1.90;99.90;;;;;;5010931;28;20822;-67
2022/01/19 04:22:02;;;;;;;45.57;22.80;;;2.10;99.90;;;;;;5008718;28;20044;-67
2022/01/19 04:24:28;;;;;;;52.87;24.17;;;;;;;;;;5008148;28;20029;-67
2022/01/19 04:29:58;;;;;;;46.17;23.40;;;1.90;99.90;;;;;;5020601;28;20383;-67
2022/01/19 04:32:33;;;;;;;43.07;20.97;;;1.90;99.90;;;;;;5008329;28;20034;-67
2022/01/19 04:35:03;;;;;;;44.30;23.73;;;1.90;99.90;;;;;;4990530;28;20549;-67
2022/01/19 05:01:57;;;;;;;26.02;15.85;;;1.80;99.90;;;;;;5026725;28;20156;-67
2022/01/19 05:06:50;;;;;;;32.90;19.03;;;;;;;;;;5011402;28;20515;-67
2022/01/19 05:14:52;;;;;;;32.13;17.20;;;;;;;;;;5022108;28;20052;-67
2022/01/19 05:17:18;;;;;;;36.43;19.57;;;1.80;99.90;;;;;;5027412;28;20672;-67
2022/01/19 05:19:43;;;;;;;44.47;23.60;;;2.00;99.90;;;;;;5024530;28;20033;-67
2022/01/19 05:22:09;;;;;;;36.27;22.23;;;2.10;99.90;;;;;;5010171;28;20065;-67
2022/01/19 05:24:34;;;;;;;39.47;22.50;;;2.10;99.90;;;;;;5007684;28;20030;-67
2022/01/19 05:27:00;;;;;;;45.20;26.07;;;;;;;;;;5008004;28;20478;-67
2022/01/19 05:29:25;;;;;;;44.17;24.97;;;2.40;99.90;;;;;;5006334;28;20116;-67
2022/01/19 05:31:51;;;;;;;43.47;25.83;;;2.70;99.90;;;;;;5007814;28;20036;-67
2022/01/19 05:34:17;;;;;;;46.63;25.17;;;;;;;;;;5013385;28;20414;-67
2022/01/19 05:36:42;;;;;;;42.90;25.47;;;2.60;99.90;;;;;;5008221;28;20087;-67
2022/01/19 05:39:08;;;;;;;54.23;29.37;;;;;;;;;;5007801;28;20080;-67
2022/01/19 05:41:34;;;;;;;46.87;26.07;;;2.50;99.90;;;;;;5007537;28;20060;-67
2022/01/19 05:44:00;;;;;;;44.67;27.00;;;;;;;;;;5007742;28;20065;-67
2022/01/19 05:46:26;;;;;;;39.80;25.53;;;2.50;99.90;;;;;;5007677;28;20026;-67
2022/01/19 05:48:52;;;;;;;35.30;23.33;;;;;;;;;;5009876;28;20379;-67
2022/01/19 05:51:19;;;;;;;43.17;26.03;;;;;;;;;;4997047;28;20056;-67
2022/01/19 05:53:44;;;;;;;46.70;29.07;;;2.40;99.90;;;;;;5010548;28;20394;-67
2022/01/19 05:56:10;;;;;;;49.63;30.23;;;2.40;99.90;;;;;;5011182;28;20519;-67
2022/01/19 05:58:36;;;;;;;53.63;30.27;;;;;;;;;;5010548;28;20049;-67
2022/01/19 06:01:02;;;;;;;51.63;28.80;;;;;;;;;;5016215;28;20035;-67
2022/01/19 06:03:28;;;;;;;42.23;27.83;;;;;;;;;;5009482;28;20040;-67
2022/01/19 06:05:53;;;;;;;58.53;32.40;;;2.40;99.90;;;;;;5018866;28;20034;-67
2022/01/19 06:10:48;;;;;;;49.60;29.60;;;2.50;99.90;;;;;;5019229;28;20042;-67
2022/01/19 06:13:18;;;;;;;57.93;31.47;;;2.60;99.90;;;;;;5029469;28;20049;-67
2022/01/19 06:15:45;;;;;;;49.63;29.57;;;2.60;99.90;;;;;;5028604;28;20383;-67
2022/01/19 06:18:11;;;;;;;56.87;32.87;;;2.80;99.90;;;;;;5029478;28;20439;-67
2022/01/19 06:20:37;;;;;;;62.90;33.97;;;2.70;99.90;;;;;;5021086;28;20101;-67
2022/01/19 06:23:03;;;;;;;56.37;32.63;;;2.80;99.90;;;;;;5010627;28;20356;-67
2022/01/19 06:25:29;;;;;;;69.50;36.33;;;2.70;99.90;;;;;;5016196;28;20057;-67
2022/01/19 06:27:55;;;;;;;59.20;34.17;;;;;;;;;;5021317;28;20072;-67
2022/01/19 06:30:20;;;;;;;61.50;36.00;;;3.00;99.90;;;;;;5020968;28;20037;-67
2022/01/19 06:32:46;;;;;;;63.57;34.23;;;2.90;99.90;;;;;;4999284;28;20049;-67
2022/01/19 06:35:11;;;;;;;66.40;35.27;;;3.20;99.90;;;;;;5009961;28;20136;-67
2022/01/19 06:37:37;;;;;;;76.47;34.53;;;2.80;99.90;;;;;;5009786;28;20034;-67
2022/01/19 06:40:09;;;;;;;72.53;36.07;;;3.10;99.90;;;;;;5010153;28;20022;-67
2022/01/19 06:42:34;;;;;;;71.23;35.97;;;2.80;99.90;;;;;;5024451;28;20025;-68
2022/01/19 06:45:02;;;;;;;71.87;37.07;;;;;;;;;;5029003;28;20579;-67
2022/01/19 06:47:28;;;;;;;83.23;41.87;;;;;;;;;;5026744;28;20040;-67
2022/01/19 06:49:53;;;;;;;72.13;36.47;;;2.90;99.90;;;;;;5010096;28;20037;-67
2022/01/19 06:52:19;;;;;;;70.40;37.03;;;3.50;99.90;;;;;;5010570;28;20072;-67
2022/01/19 06:54:44;;;;;;;85.13;40.93;;;2.90;99.90;;;;;;5028245;28;20048;-67
2022/01/19 06:57:10;;;;;;;85.63;38.73;;;;;;;;;;5010779;28;20029;-67
2022/01/19 06:59:36;;;;;;;82.73;38.93;;;2.70;99.90;;;;;;5013364;28;20537;-67
2022/01/19 07:02:02;;;;;;;76.47;37.77;;;3.00;99.90;;;;;;5009337;28;20486;-67
2022/01/19 07:04:28;;;;;;;90.27;42.37;;;;;;;;;;5008990;28;20409;-67
2022/01/19 07:06:53;;;;;;;82.30;41.10;;;3.00;99.90;;;;;;5010686;28;20029;-67
2022/01/19 07:09:19;;;;;;;84.43;40.97;;;;;;;;;;5009813;28;20061;-67
2022/01/19 07:11:45;;;;;;;77.47;37.00;;;3.20;99.90;;;;;;5008503;28;20018;-67
2022/01/19 07:14:13;;;;;;;73.30;38.00;;;3.20;99.90;;;;;;5009767;28;20112;-67
2022/01/19 07:16:39;;;;;;;76.03;39.13;;;3.10;99.90;;;;;;5008387;28;20022;-68
2022/01/19 07:19:05;;;;;;;77.70;36.93;;;3.10;99.90;;;;;;5009608;28;20037;-69
2022/01/19 07:21:30;;;;;;;82.47;39.93;;;3.10;99.90;;;;;;5009111;28;20053;-69
2022/01/19 07:23:56;;;;;;;68.80;36.20;;;3.10;99.90;;;;;;4995462;28;20018;-69
2022/01/19 07:26:22;;;;;;;80.37;39.63;;;;;;;;;;5010734;28;20026;-69
2022/01/19 07:28:48;;;;;;;76.40;35.73;;;;;;;;;;5008809;28;20395;-70
2022/01/19 07:31:14;;;;;;;65.03;31.90;;;;;;;;;;5009024;28;20072;-69
2022/01/19 07:33:39;;;;;;;81.70;38.67;;;3.20;99.90;;;;;;5008833;28;20746;-69
2022/01/19 07:36:05;;;;;;;70.50;35.80;;;;;;;;;;5009177;28;20037;-69
2022/01/19 07:38:31;;;;;;;65.57;36.37;;;3.20;99.90;;;;;;5008558;28;20109;-69
2022/01/19 07:40:56;;;;;;;71.63;36.80;;;3.10;99.90;;;;;;5008758;28;20034;-69
2022/01/19 07:43:22;;;;;;;75.60;38.00;;;3.40;99.90;;;;;;5016002;28;20014;-69
2022/01/19 07:45:48;;;;;;;77.87;40.97;;;3.10;99.90;;;;;;5008208;28;20078;-69
2022/01/19 07:48:14;;;;;;;78.37;39.13;;;3.20;99.90;;;;;;5016018;28;20029;-69
2022/01/19 07:50:39;;;;;;;74.23;39.80;;;3.30;99.90;;;;;;5026809;28;20044;-69
2022/01/19 07:53:05;;;;;;;78.47;39.53;;;;;;;;;;5027711;28;20033;-69
2022/01/19 07:55:31;;;;;;;74.37;38.23;;;3.10;99.90;;;;;;5009042;28;20528;-69
2022/01/19 07:57:57;;;;;;;73.70;37.70;;;;;;;;;;5027596;28;20133;-69
2022/01/19 08:00:23;;;;;;;78.97;38.20;;;;;;;;;;5009046;28;20022;-69
2022/01/19 08:02:49;;;;;;;76.20;39.00;;;;;;;;;;5011149;28;20435;-69
2022/01/19 08:05:16;;;;;;;72.10;37.60;;;3.20;99.90;;;;;;5014345;28;20025;-69
2022/01/19 08:07:42;;;;;;;83.00;40.27;;;;;;;;;;5006952;28;20267;-69
2022/01/19 08:10:09;;;;;;;73.00;37.20;;;3.20;99.90;;;;;;5024342;28;20033;-69
2022/01/19 08:12:35;;;;;;;76.27;36.97;;;3.20;99.90;;;;;;5024839;28;20056;-69
2022/01/19 08:15:00;;;;;;;77.27;37.97;;;3.30;99.90;;;;;;4991001;28;20022;-69
2022/01/19 08:17:27;;;;;;;72.93;38.03;;;3.40;99.90;;;;;;5013587;28;20096;-68
2022/01/19 08:19:53;;;;;;;83.87;43.87;;;3.40;99.90;;;;;;5008078;28;20113;-69
2022/01/19 08:22:19;;;;;;;74.13;38.77;;;;;;;;;;5027297;28;20093;-69
2022/01/19 08:24:45;;;;;;;70.03;37.07;;;3.20;99.90;;;;;;5026604;28;20337;-69
2022/01/19 08:27:11;;;;;;;68.30;36.60;;;3.30;99.90;;;;;;5016841;28;20042;-69
2022/01/19 08:29:37;;;;;;;69.17;36.50;;;;;;;;;;5007796;28;20034;-69
2022/01/19 08:32:04;;;;;;;74.20;37.03;;;3.10;99.90;;;;;;5008027;28;20030;-69
2022/01/19 08:34:30;;;;;;;66.50;36.67;;;;;;;;;;5007609;28;20448;-69
2022/01/19 08:36:56;;;;;;;67.40;36.37;;;3.30;99.90;;;;;;5007730;28;20053;-69
2022/01/19 08:39:24;;;;;;;70.97;36.17;;;;;;;;;;4990330;28;20030;-69
2022/01/19 08:41:50;;;;;;;65.40;37.07;;;3.50;99.90;;;;;;5012620;28;20366;-69
2022/01/19 08:44:15;;;;;;;68.60;37.07;;;3.40;99.90;;;;;;5009892;28;20041;-69
2022/01/19 08:46:41;;;;;;;61.13;35.27;;;3.30;99.90;;;;;;5007409;28;20299;-69
2022/01/19 08:49:07;;;;;;;69.47;37.33;;;;;;;;;;5007975;28;20038;-69
2022/01/19 08:51:33;;;;;;;67.50;36.07;;;3.40;99.90;;;;;;5007133;28;20390;-69
2022/01/19 08:53:58;;;;;;;65.23;37.17;;;3.60;99.90;;;;;;5007889;28;20384;-69
2022/01/19 08:56:24;;;;;;;68.93;38.27;;;;;;;;;;5007272;28;20037;-69
2022/01/19 08:58:50;;;;;;;60.67;33.60;;;3.40;99.90;;;;;;5009435;28;20053;-69
2022/01/19 09:01:15;;;;;;;61.97;33.73;;;3.40;99.90;;;;;;5008225;28;20030;-69
2022/01/19 09:03:42;;;;;;;63.77;35.10;;;3.40;99.90;;;;;;5007369;28;20156;-69
2022/01/19 09:06:07;;;;;;;53.30;32.33;;;3.60;99.90;;;;;;5010789;28;20068;-69
2022/01/19 09:08:34;;;;;;;62.17;36.57;;;3.40;99.90;;;;;;4989722;28;20057;-69
2022/01/19 09:11:00;;;;;;;61.90;35.67;;;3.60;99.90;;;;;;4990276;28;20048;-69
2022/01/19 09:13:26;;;;;;;60.37;35.37;;;3.10;99.90;;;;;;5010652;28;20048;-69
2022/01/19 09:15:52;;;;;;;63.27;36.17;;;3.50;99.90;;;;;;5009877;28;20026;-69
2022/01/19 09:18:18;;;;;;;61.03;34.90;;;3.60;99.90;;;;;;5008003;28;20037;-68
2022/01/19 09:20:43;;;;;;;58.87;36.20;;;3.50;99.90;;;;;;5006802;28;20030;-69
2022/01/19 09:23:09;;;;;;;56.27;35.73;;;3.50;99.90;;;;;;5009702;28;20087;-69
2022/01/19 09:25:34;;;;;;;67.10;35.97;;;3.50;99.90;;;;;;5010462;28;20084;-69
2022/01/19 09:28:00;;;;;;;58.80;33.93;;;3.50;99.90;;;;;;5017460;28;20913;-69
2022/01/19 09:30:26;;;;;;;61.80;35.80;;;3.50;99.90;;;;;;5023830;28;20021;-69
2022/01/19 09:33:05;;;;;;;62.93;36.23;;;3.60;99.90;;;;;;5019927;28;20043;-69
2022/01/19 09:35:49;;;;;;;60.90;36.03;;;3.70;99.90;;;;;;5015809;28;20022;-69
2022/01/19 09:38:15;;;;;;;58.90;33.65;;;;;;;;;;5011475;28;20098;-69
2022/01/19 09:40:41;;;;;;;53.13;33.67;;;;;;;;;;5010103;28;20029;-69
2022/01/19 09:43:08;;;;;;;52.43;32.73;;;3.30;99.90;;;;;;5017070;28;20356;-69
2022/01/19 09:45:33;;;;;;;58.90;36.33;;;4.10;99.90;;;;;;5010505;28;20079;-69
2022/01/19 09:47:59;;;;;;;57.07;34.73;;;3.80;99.90;;;;;;5011632;28;20417;-69
2022/01/19 09:50:24;;;;;;;56.37;36.40;;;3.90;99.90;;;;;;5014287;28;20029;-69
2022/01/19 09:52:50;;;;;;;57.17;33.80;;;3.60;99.90;;;;;;5010780;28;20018;-69
2022/01/19 09:55:16;;;;;;;52.23;31.70;;;3.80;99.90;;;;;;5011019;28;20045;-69
2022/01/19 09:57:41;;;;;;;61.93;36.20;;;3.90;99.90;;;;;;5010105;28;20245;-69
2022/01/19 10:00:07;;;;;;;53.07;32.07;;;4.00;99.90;;;;;;5016212;28;20572;-69
2022/01/19 10:02:33;;;;;;;53.80;31.73;;;3.80;99.90;;;;;;5010265;28;20093;-69
2022/01/19 10:05:08;;;;;;;59.67;33.60;;;4.00;99.90;;;;;;5010428;28;20025;-69
2022/01/19 10:07:34;;;;;;;50.43;31.60;;;3.90;99.90;;;;;;5009956;28;20029;-69
2022/01/19 10:10:03;;;;;;;56.57;33.47;;;3.90;99.90;;;;;;5010010;28;20037;-69
2022/01/19 10:18:19;;;;;;;52.03;31.63;;;3.90;99.90;;;;;;5015894;28;20801;-69
2022/01/19 10:21:03;;;;;;;53.57;34.03;;;3.70;99.90;;;;;;5010400;28;20099;-69
2022/01/19 10:23:40;;;;;;;53.03;29.55;;;4.00;99.90;;;;;;5009463;28;20034;-69
2022/01/19 10:26:08;;;;;;;49.63;32.07;;;4.20;99.90;;;;;;5029123;28;20460;-69
2022/01/19 10:28:53;;;;;;;47.60;31.10;;;4.20;99.90;;;;;;5028083;28;20034;-69
2022/01/19 10:31:19;;;;;;;54.80;32.30;;;4.00;99.90;;;;;;5027904;28;20029;-69
2022/01/19 10:34:04;;;;;;;58.00;33.97;;;4.30;99.90;;;;;;5023943;28;20099;-69
2022/01/19 10:36:41;;;;;;;57.27;33.23;;;4.20;99.90;;;;;;5028119;28;20051;-69
2022/01/19 10:39:06;;;;;;;47.70;31.37;;;4.20;99.90;;;;;;5016812;28;20242;-68
2022/01/19 10:41:32;;;;;;;53.53;33.70;;;;;;;;;;5015688;28;20556;-68
2022/01/19 10:43:58;;;;;;;50.57;31.13;;;;;;;;;;5023987;28;20064;-68
2022/01/19 10:46:33;;;;;;;48.17;29.47;;;4.30;99.90;;;;;;5027421;28;20040;-69
2022/01/19 10:49:08;;;;;;;52.43;33.27;;;4.20;99.90;;;;;;5028013;28;20187;-68
2022/01/19 10:51:37;;;;;;;51.60;30.90;;;4.30;99.90;;;;;;5028045;28;20457;-69
2022/01/19 10:54:08;;;;;;;60.73;34.87;;;3.90;99.90;;;;;;5026230;28;20568;-68
2022/01/19 10:56:35;;;;;;;51.13;30.80;;;;;;;;;;5010094;28;20068;-68
2022/01/19 10:59:08;;;;;;;53.27;32.27;;;4.30;99.90;;;;;;5009485;28;20045;-69
2022/01/19 11:01:45;;;;;;;53.13;31.70;;;4.40;99.90;;;;;;5009218;28;20101;-68
2022/01/19 11:04:27;;;;;;;48.87;30.93;;;4.30;99.90;;;;;;5011560;28;20091;-68
2022/01/19 11:07:07;;;;;;;40.90;27.70;;;4.20;99.90;;;;;;5008510;28;20026;-69
2022/01/19 11:09:57;;;;;;;52.20;32.80;;;4.20;99.90;;;;;;5016927;28;20041;-68
2022/01/19 11:12:26;;;;;;;51.77;30.83;;;4.40;99.90;;;;;;5017908;28;20144;-68
2022/01/19 11:14:51;;;;;;;47.60;30.80;;;4.20;99.90;;;;;;4991247;28;20120;-68
2022/01/19 11:17:17;;;;;;;50.80;32.47;;;4.20;99.90;;;;;;5013475;28;20116;-68
2022/01/19 11:19:43;;;;;;;55.10;32.87;;;4.10;99.90;;;;;;5010097;28;20066;-69
2022/01/19 11:22:30;;;;;;;51.70;29.93;;;4.40;99.90;;;;;;5012424;28;20104;-69
2022/01/19 11:25:11;;;;;;;56.27;33.33;;;4.60;99.90;;;;;;5009116;28;20034;-68
2022/01/19 11:27:40;;;;;;;55.23;33.00;;;4.30;99.90;;;;;;5016321;28;20018;-68
2022/01/19 11:30:22;;;;;;;58.80;34.20;;;4.40;99.90;;;;;;5013733;28;20603;-69
2022/01/19 11:33:24;;;;;;;52.17;31.97;;;4.30;99.90;;;;;;5014072;28;20033;-68
2022/01/19 11:35:55;;;;;;;53.30;32.97;;;4.30;99.90;;;;;;5012015;28;20018;-68
2022/01/19 11:38:41;;;;;;;52.20;32.67;;;4.70;99.90;;;;;;5015641;28;20032;-69
2022/01/19 11:41:07;;;;;;;56.47;35.17;;;4.90;99.90;;;;;;5008883;28;20544;-68
2022/01/19 11:43:33;;;;;;;60.93;32.77;;;;;;;;;;4998639;28;20061;-68
2022/01/19 11:46:02;;;;;;;59.67;34.07;;;4.50;99.90;;;;;;5014235;28;20183;-69
2022/01/19 11:48:32;;;;;;;52.77;33.50;;;4.60;99.90;;;;;;5007952;28;20094;-68
2022/01/19 11:51:30;;;;;;;52.77;31.73;;;5.00;99.90;;;;;;5013855;28;20109;-68
2022/01/19 11:54:08;;;;;;;48.70;33.30;;;4.70;99.90;;;;;;5021892;28;20021;-68
2022/01/19 11:56:59;;;;;;;59.07;32.03;;;4.70;99.90;;;;;;5026760;28;20132;-69
2022/01/19 11:59:55;;;;;;;56.57;34.33;;;4.70;99.90;;;;;;5021849;28;20105;-68
2022/01/19 12:02:21;;;;;;;51.67;33.83;;;;;;;;;;5012279;28;20025;-68
2022/01/19 12:05:10;;;;;;;54.07;34.17;;;4.70;99.90;;;;;;5012026;28;20056;-68
2022/01/19 12:07:38;;;;;;;50.60;32.20;;;4.70;99.90;;;;;;4976600;28;20124;-68
2022/01/19 12:10:06;;;;;;;55.43;34.17;;;4.70;99.90;;;;;;5008254;28;20041;-68
2022/01/19 12:12:37;;;;;;;55.97;35.17;;;4.80;99.90;;;;;;5007607;28;20110;-68
2022/01/19 12:15:05;;;;;;;55.20;35.20;;;4.60;99.90;;;;;;5007988;28;20144;-68
2022/01/19 12:18:01;;;;;;;60.60;35.27;;;4.80;99.90;;;;;;5007508;28;20493;-68
2022/01/19 12:20:50;;;;;;;52.23;33.47;;;4.80;99.90;;;;;;5023231;28;20029;-68
2022/01/19 12:23:28;;;;;;;56.60;33.57;;;4.80;99.90;;;;;;5027644;28;20022;-68
2022/01/19 12:25:55;;;;;;;58.30;35.20;;;4.80;99.90;;;;;;5019979;28;20096;-68
2022/01/19 12:28:40;;;;;;;54.53;34.47;;;4.80;99.90;;;;;;5008221;28;20057;-68
2022/01/19 12:31:24;;;;;;;57.67;35.53;;;5.00;99.90;;;;;;5017850;28;20030;-68
2022/01/19 12:34:02;;;;;;;53.28;34.83;;;5.20;99.90;;;;;;5026111;28;20327;-68
2022/01/19 12:36:48;;;;;;;53.07;34.10;;;6.30;99.90;;;;;;5025560;28;20060;-68
2022/01/19 12:39:25;;;;;;;48.67;32.53;;;5.30;99.90;;;;;;5012906;28;20026;-68
2022/01/19 12:42:14;;;;;;;56.23;34.70;;;5.40;99.90;;;;;;5009814;28;20447;-68
2022/01/19 12:44:49;;;;;;;60.10;35.27;;;5.40;99.90;;;;;;5007346;28;20022;-68
2022/01/19 12:47:29;;;;;;;52.87;34.20;;;5.50;99.90;;;;;;5021788;28;20033;-68
2022/01/19 12:50:03;;;;;;;51.90;32.33;;;5.30;99.90;;;;;;5026593;28;20394;-68
2022/01/19 12:52:31;;;;;;;52.67;34.37;;;5.60;99.90;;;;;;5026498;28;20109;-68
2022/01/19 12:55:08;;;;;;;52.37;31.07;;;5.50;99.90;;;;;;5027052;28;20033;-68
2022/01/19 12:57:34;;;;;;;54.57;35.60;;;;;;;;;;5023588;28;20045;-68
2022/01/19 13:00:00;;;;;;;52.27;33.10;;;;;;;;;;5011834;28;20040;-68
2022/01/19 13:02:29;;;;;;;54.47;32.73;;;5.40;99.90;;;;;;5030741;28;20429;-68
2022/01/19 13:05:05;;;;;;;50.13;32.87;;;5.30;99.90;;;;;;5030372;28;20118;-68
2022/01/19 13:07:34;;;;;;;48.93;33.40;;;;;;;;;;5030013;28;20074;-68
2022/01/19 13:10:50;;;;;;;56.40;34.53;;;5.10;99.90;;;;;;5027109;28;20090;-68
2022/01/19 13:13:29;;;;;;;54.47;34.27;;;5.50;99.90;;;;;;5030758;28;20053;-68
2022/01/19 13:16:02;;;;;;;51.77;34.40;;;5.30;99.90;;;;;;5005904;28;20032;-68
2022/01/19 13:18:44;;;;;;;48.30;32.93;;;5.30;99.90;;;;;;5010850;28;20025;-68
2022/01/19 13:21:20;;;;;;;49.00;31.30;;;5.20;99.90;;;;;;5011961;28;20034;-68
2022/01/19 13:24:17;;;;;;;55.37;35.60;;;5.40;99.90;;;;;;5022222;28;20063;-68
2022/01/19 13:26:50;;;;;;;54.13;34.10;;;5.20;99.90;;;;;;5029027;28;20141;-68
2022/01/19 13:29:25;;;;;;;53.70;33.57;;;5.30;99.90;;;;;;5030315;28;20077;-68
2022/01/19 13:32:12;;;;;;;57.53;34.73;;;5.30;99.90;;;;;;5029445;28;20492;-69
2022/01/19 13:34:56;;;;;;;58.27;35.30;;;5.30;99.90;;;;;;5010914;28;20046;-69
2022/01/19 13:37:24;;;;;;;56.50;35.57;;;5.50;99.90;;;;;;5015683;28;20033;-68
2022/01/19 13:40:00;;;;;;;54.87;35.07;;;5.20;99.90;;;;;;5025039;28;20112;-68
2022/01/19 13:42:40;;;;;;;51.30;35.83;;;5.20;99.90;;;;;;5022945;28;20034;-68
2022/01/19 13:45:25;;;;;;;53.40;35.50;;;5.40;99.90;;;;;;5011403;28;20029;-68
2022/01/19 13:50:32;;;;;;;57.70;36.97;;;5.10;99.90;;;;;;5029778;28;20025;-69
2022/01/19 13:53:00;;;;;;;57.70;35.63;;;;;;;;;;5015090;28;20482;-69
2022/01/19 13:55:25;;;;;;;63.80;37.53;;;5.20;99.90;;;;;;5012325;28;20018;-68
2022/01/19 13:58:05;;;;;;;63.43;36.57;;;5.20;99.90;;;;;;5028241;28;20055;-68
2022/01/19 14:00:31;;;;;;;68.73;41.90;;;;;;;;;;5010059;28;20391;-68
2022/01/19 14:03:02;;;;;;;59.00;38.03;;;5.30;99.90;;;;;;5010996;28;20549;-68
2022/01/19 14:05:39;;;;;;;60.37;37.20;;;5.20;99.90;;;;;;5011141;28;20022;-68
2022/01/19 14:08:05;;;;;;;56.27;36.40;;;5.20;99.90;;;;;;4992395;28;20026;-69
2022/01/19 14:10:48;;;;;;;61.80;39.33;;;5.30;99.90;;;;;;5010189;28;20026;-69
2022/01/19 14:13:21;;;;;;;60.57;36.67;;;5.20;99.90;;;;;;5017184;28;20038;-68
2022/01/19 14:15:46;;;;;;;54.37;34.90;;;5.20;99.90;;;;;;5009890;28;20026;-68
2022/01/19 14:18:12;;;;;;;61.80;37.10;;;;;;;;;;5010897;28;20021;-68
2022/01/19 14:20:38;;;;;;;53.10;34.50;;;5.30;99.90;;;;;;5015398;28;20397;-69
2022/01/19 14:23:09;;;;;;;57.73;36.53;;;5.30;99.90;;;;;;5010565;28;20026;-69
2022/01/19 14:25:35;;;;;;;57.50;37.80;;;;;;;;;;5009936;28;20040;-68
2022/01/19 14:28:15;;;;;;;54.10;34.87;;;5.40;99.90;;;;;;5010047;28;20746;-68
2022/01/19 14:30:42;;;;;;;60.57;38.43;;;5.40;99.90;;;;;;5009575;28;20026;-68
2022/01/19 14:33:14;;;;;;;60.63;36.97;;;5.40;99.90;;;;;;5010566;28;20036;-68
2022/01/19 14:35:40;;;;;;;58.10;37.53;;;5.60;99.90;;;;;;5012584;28;20033;-68
2022/01/19 14:38:05;;;;;;;61.93;38.60;;;5.50;99.90;;;;;;5010281;28;20065;-68
2022/01/19 14:40:34;;;;;;;63.57;38.33;;;5.40;99.90;;;;;;5009592;28;20037;-68
2022/01/19 14:43:00;;;;;;;56.47;35.00;;;5.30;99.90;;;;;;5010299;28;20105;-69
2022/01/19 14:45:35;;;;;;;60.03;36.00;;;5.40;99.90;;;;;;5009690;28;20181;-68
2022/01/19 14:48:15;;;;;;;51.33;33.37;;;5.40;99.90;;;;;;5010071;28;20208;-68
2022/01/19 14:50:42;;;;;;;58.73;36.37;;;5.30;99.90;;;;;;5018635;28;20017;-68